Time;durP1;ratioP1;P1;durP2;ratioP2;P2;SDS_P1;SDS_P2;PMS_P1;PMS_P2;Temp;Humidity;BMP_temperature;BMP_pressure;BME280_temperature;BME280_humidity;BME280_pressure;Samples;Min_cycle;Max_cycle;Signal;HPM_P1;HPM_P2
2023/09/14 00:01:19;;;;;;;47.17;31.70;;;20.20;49.80;;;;;;4930477;29;20188;-77
2023/09/14 00:03:54;;;;;;;37.33;30.07;;;20.20;50.00;;;;;;4931763;29;20192;-78
2023/09/14 00:06:21;;;;;;;34.53;29.17;;;20.30;50.10;;;;;;4930808;29;20546;-79
2023/09/14 00:08:49;;;;;;;35.93;32.03;;;20.40;49.50;;;;;;4933213;29;20871;-78
2023/09/14 00:11:16;;;;;;;39.77;31.57;;;20.50;49.70;;;;;;4932182;29;20188;-78
2023/09/14 00:13:43;;;;;;;33.73;27.53;;;20.70;49.50;;;;;;4935062;29;20219;-77
2023/09/14 00:16:11;;;;;;;31.40;24.27;;;20.80;48.90;;;;;;4937220;29;20295;-76
2023/09/14 00:18:38;;;;;;;27.00;20.73;;;20.80;49.20;;;;;;4933073;29;20214;-76
2023/09/14 00:21:05;;;;;;;24.93;19.93;;;20.90;47.60;;;;;;4936456;29;20187;-75
2023/09/14 00:23:33;;;;;;;22.83;19.07;;;20.90;46.90;;;;;;4935117;29;20192;-75
2023/09/14 00:26:00;;;;;;;23.97;16.80;;;20.90;47.10;;;;;;4934407;29;20253;-76
2023/09/14 00:28:47;;;;;;;22.37;16.13;;;21.00;46.30;;;;;;4935794;29;20179;-78
2023/09/14 00:31:18;;;;;;;20.40;15.70;;;21.20;46.30;;;;;;4935804;29;20207;-78
2023/09/14 00:33:45;;;;;;;22.73;17.30;;;21.40;46.20;;;;;;4934365;29;20261;-79
2023/09/14 00:36:12;;;;;;;26.07;18.47;;;21.60;46.40;;;;;;4915870;29;20227;-76
2023/09/14 00:38:53;;;;;;;;;;;;;;;;;;;;;
2023/09/14 00:41:24;;;;;;;15.80;13.53;;;21.60;47.20;;;;;;4935950;29;20206;-75
2023/09/14 00:43:51;;;;;;;14.67;12.20;;;21.80;43.80;;;;;;4934663;29;20714;-78
2023/09/14 00:46:19;;;;;;;19.30;12.10;;;22.00;43.30;;;;;;4935420;29;20279;-77
2023/09/14 00:48:47;;;;;;;13.00;10.40;;;22.10;43.10;;;;;;4935646;29;20180;-79
2023/09/14 00:51:18;;;;;;;15.50;11.70;;;22.10;43.20;;;;;;4934143;29;20192;-77
2023/09/14 00:53:47;;;;;;;16.10;11.30;;;22.40;43.50;;;;;;4935125;29;20234;-74
2023/09/14 00:56:15;;;;;;;15.40;10.67;;;22.40;42.30;;;;;;4935005;29;20188;-77
2023/09/14 00:58:46;;;;;;;14.57;11.10;;;22.50;42.20;;;;;;4936231;29;20188;-78
2023/09/14 01:01:19;;;;;;;14.13;11.27;;;22.70;42.50;;;;;;4933184;29;20588;-77
2023/09/14 01:03:50;;;;;;;13.77;10.63;;;22.90;42.50;;;;;;4927133;29;20191;-78
2023/09/14 01:06:17;;;;;;;18.33;12.13;;;23.20;42.10;;;;;;4934211;29;20290;-74
2023/09/14 01:08:45;;;;;;;15.60;11.13;;;23.20;41.60;;;;;;4934266;29;20192;-77
2023/09/14 01:11:15;;;;;;;14.83;9.63;;;23.50;41.10;;;;;;4935399;29;20190;-76
2023/09/14 01:14:00;;;;;;;12.73;9.33;;;23.70;39.90;;;;;;4933598;29;20288;-76
2023/09/14 01:16:38;;;;;;;18.53;9.97;;;23.70;39.40;;;;;;4934793;29;20617;-76
2023/09/14 01:19:25;;;;;;;13.33;8.33;;;23.70;39.90;;;;;;4934773;29;20207;-76
2023/09/14 01:22:18;;;;;;;9.87;7.30;;;23.80;38.70;;;;;;4933518;29;20710;-78
2023/09/14 01:24:52;;;;;;;9.63;6.73;;;24.10;38.30;;;;;;4932455;29;20175;-79
2023/09/14 01:27:22;;;;;;;10.50;7.20;;;24.30;37.50;;;;;;4933221;29;20187;-78
2023/09/14 01:29:50;;;;;;;9.07;6.67;;;24.40;37.70;;;;;;4928353;29;20233;-78
2023/09/14 01:32:17;;;;;;;9.93;7.03;;;24.60;37.50;;;;;;4931141;29;20299;-76
2023/09/14 01:34:46;;;;;;;9.13;7.07;;;24.60;37.30;;;;;;4932324;29;20663;-76
2023/09/14 01:37:16;;;;;;;9.33;6.73;;;24.60;37.60;;;;;;4932628;29;20184;-77
2023/09/14 01:39:45;;;;;;;7.03;6.07;;;24.80;37.10;;;;;;4927210;29;20188;-76
2023/09/14 01:42:13;;;;;;;7.60;6.13;;;24.80;36.40;;;;;;4932821;29;20196;-77
2023/09/14 01:44:41;;;;;;;11.17;6.47;;;24.70;36.90;;;;;;4931726;29;20186;-77
2023/09/14 01:47:08;;;;;;;7.77;6.13;;;24.80;37.20;;;;;;4933956;29;20198;-76
2023/09/14 01:49:35;;;;;;;7.07;5.40;;;24.80;36.90;;;;;;4932090;29;20236;-76
2023/09/14 01:52:03;;;;;;;6.00;5.10;;;25.00;36.40;;;;;;4931412;29;20255;-76
2023/09/14 01:54:30;;;;;;;6.33;3.70;;;24.80;36.40;;;;;;4932833;29;20636;-77
2023/09/14 01:56:58;;;;;;;5.00;3.17;;;25.10;35.20;;;;;;4933882;29;20196;-78
2023/09/14 01:59:25;;;;;;;3.73;3.30;;;25.30;34.70;;;;;;4929841;29;20636;-75
2023/09/14 02:01:52;;;;;;;4.10;3.40;;;25.50;33.90;;;;;;4934845;29;20279;-78
2023/09/14 02:04:20;;;;;;;6.73;3.23;;;25.60;34.20;;;;;;4934164;29;20207;-78
2023/09/14 02:06:47;;;;;;;5.20;3.60;;;25.90;33.80;;;;;;4918098;29;20192;-78
2023/09/14 02:09:14;;;;;;;22.10;12.57;;;26.20;33.20;;;;;;4934853;29;20188;-78
2023/09/14 02:11:43;;;;;;;17.57;12.60;;;26.00;36.50;;;;;;4934248;29;20247;-74
2023/09/14 02:14:11;;;;;;;27.10;21.33;;;25.80;36.80;;;;;;4931896;29;20200;-75
2023/09/14 02:16:38;;;;;;;25.77;18.57;;;25.60;38.30;;;;;;4933302;29;20283;-76
2023/09/14 02:19:05;;;;;;;28.60;23.27;;;25.50;38.40;;;;;;4935182;29;20183;-74
2023/09/14 02:21:33;;;;;;;26.23;21.40;;;25.20;38.80;;;;;;4933975;29;20540;-76
2023/09/14 02:24:00;;;;;;;17.50;14.60;;;25.10;38.60;;;;;;4934906;29;20257;-76
2023/09/14 02:26:27;;;;;;;30.37;22.87;;;25.40;37.20;;;;;;4934553;29;20195;-76
2023/09/14 02:28:55;;;;;;;37.77;33.50;;;25.80;37.50;;;;;;4935033;29;20196;-74
2023/09/14 02:31:22;;;;;;;45.53;36.33;;;25.60;38.70;;;;;;4934286;29;20199;-75
2023/09/14 02:33:50;;;;;;;50.17;40.57;;;25.40;39.10;;;;;;4934198;29;20227;-75
2023/09/14 02:36:17;;;;;;;46.53;39.50;;;25.80;39.20;;;;;;4934300;29;20322;-76
2023/09/14 02:38:45;;;;;;;51.30;44.97;;;25.90;38.30;;;;;;4934926;29;20191;-73
2023/09/14 02:41:13;;;;;;;50.97;41.80;;;25.90;39.50;;;;;;4936053;29;20255;-75
2023/09/14 02:43:40;;;;;;;59.20;52.57;;;25.90;38.70;;;;;;4935331;29;20184;-74
2023/09/14 02:46:08;;;;;;;62.23;53.13;;;26.20;39.40;;;;;;4935437;29;20188;-73
2023/09/14 02:48:35;;;;;;;52.20;46.30;;;26.20;39.80;;;;;;4935463;29;20184;-75
2023/09/14 02:51:03;;;;;;;54.83;44.50;;;26.00;38.90;;;;;;4935651;29;20195;-75
2023/09/14 02:53:30;;;;;;;63.63;54.10;;;26.00;39.00;;;;;;4934904;29;20224;-73
2023/09/14 02:55:57;;;;;;;69.63;58.83;;;26.00;40.10;;;;;;4933490;29;20544;-75
2023/09/14 02:58:25;;;;;;;68.40;54.50;;;26.40;40.10;;;;;;4934698;29;20199;-75
2023/09/14 03:00:52;;;;;;;53.23;46.03;;;26.00;40.00;;;;;;4933882;29;20186;-76
2023/09/14 03:03:19;;;;;;;56.43;45.90;;;25.90;39.30;;;;;;4934353;29;20196;-74
2023/09/14 03:05:48;;;;;;;60.10;52.07;;;26.10;39.70;;;;;;4933902;29;20180;-74
2023/09/14 03:08:15;;;;;;;64.20;56.83;;;26.30;39.10;;;;;;4934573;29;20219;-74
2023/09/14 03:10:43;;;;;;;73.20;57.63;;;25.80;41.70;;;;;;4915954;29;20669;-75
2023/09/14 03:13:11;;;;;;;70.73;58.83;;;26.30;40.80;;;;;;4932046;29;20215;-75
2023/09/14 03:15:38;;;;;;;68.13;57.97;;;26.50;40.90;;;;;;4933123;29;20188;-73
2023/09/14 03:18:06;;;;;;;73.30;63.80;;;26.30;41.40;;;;;;4916894;29;20191;-73
2023/09/14 03:20:33;;;;;;;75.40;64.00;;;25.90;42.40;;;;;;4933744;29;20211;-75
2023/09/14 03:23:02;;;;;;;76.23;67.80;;;25.80;42.40;;;;;;4931915;29;20666;-73
2023/09/14 03:25:30;;;;;;;82.73;68.33;;;26.10;42.10;;;;;;4929033;29;20662;-73
2023/09/14 03:27:57;;;;;;;79.77;71.03;;;26.10;42.60;;;;;;4933917;29;20204;-75
2023/09/14 03:30:24;;;;;;;82.33;72.03;;;26.40;41.80;;;;;;4933291;29;20267;-73
2023/09/14 03:32:52;;;;;;;86.37;74.83;;;26.70;41.60;;;;;;4933053;29;20674;-74
2023/09/14 03:35:19;;;;;;;82.00;73.10;;;26.20;42.90;;;;;;4933193;29;20227;-74
2023/09/14 03:37:46;;;;;;;85.77;76.47;;;26.40;42.20;;;;;;4933068;29;20192;-75
2023/09/14 03:40:14;;;;;;;87.97;75.90;;;26.50;42.40;;;;;;4933026;29;20197;-75
2023/09/14 03:42:41;;;;;;;83.33;74.03;;;26.80;42.20;;;;;;4935177;29;20239;-75
2023/09/14 03:45:09;;;;;;;83.63;72.33;;;27.30;40.80;;;;;;4936209;29;20192;-75
2023/09/14 03:47:36;;;;;;;79.53;65.77;;;27.30;40.70;;;;;;4936755;29;20184;-76
2023/09/14 03:50:04;;;;;;;64.67;57.53;;;26.80;40.70;;;;;;4936034;29;20188;-74
2023/09/14 03:52:31;;;;;;;70.33;60.73;;;27.00;40.20;;;;;;4937063;29;20630;-75
2023/09/14 03:54:58;;;;;;;64.40;54.93;;;26.90;41.20;;;;;;4936274;29;20199;-73
2023/09/14 03:57:26;;;;;;;59.63;51.83;;;26.80;40.30;;;;;;4937425;29;20250;-74
2023/09/14 03:59:53;;;;;;;59.10;52.80;;;26.90;40.40;;;;;;4937004;29;20187;-76
2023/09/14 04:02:20;;;;;;;56.87;49.60;;;27.10;41.10;;;;;;4937050;29;20249;-77
2023/09/14 04:04:48;;;;;;;53.07;46.53;;;27.40;40.30;;;;;;4935934;29;20195;-75
2023/09/14 04:07:15;;;;;;;52.93;46.47;;;27.60;39.40;;;;;;4936496;29;20181;-75
2023/09/14 04:09:43;;;;;;;45.85;39.30;;;27.30;40.20;;;;;;4919700;29;20658;-74
2023/09/14 04:12:10;;;;;;;46.17;40.63;;;27.80;38.10;;;;;;4936607;29;20549;-73
2023/09/14 04:14:38;;;;;;;44.17;38.10;;;26.90;40.10;;;;;;4936630;29;20278;-74
2023/09/14 04:17:05;;;;;;;47.58;38.78;;;26.70;39.80;;;;;;4937148;29;20188;-71
2023/09/14 04:19:32;;;;;;;43.33;35.30;;;27.10;39.90;;;;;;4936894;29;20203;-75
2023/09/14 04:22:00;;;;;;;38.57;34.00;;;26.90;39.80;;;;;;4935254;29;20188;-74
2023/09/14 04:24:27;;;;;;;37.93;32.70;;;26.80;39.30;;;;;;4936396;29;20206;-73
2023/09/14 04:26:54;;;;;;;36.03;32.23;;;26.80;39.00;;;;;;4935573;29;20204;-75
2023/09/14 04:29:22;;;;;;;34.43;29.87;;;27.30;38.70;;;;;;4936764;29;20529;-73
2023/09/14 04:31:49;;;;;;;33.63;29.80;;;27.30;37.70;;;;;;4935455;29;20200;-75
2023/09/14 04:34:16;;;;;;;31.37;27.20;;;26.70;39.10;;;;;;4936729;29;20263;-75
2023/09/14 04:36:44;;;;;;;35.10;26.70;;;26.80;39.60;;;;;;4935681;29;20285;-77
2023/09/14 04:39:11;;;;;;;31.47;24.87;;;27.30;38.40;;;;;;4935753;29;20192;-77
2023/09/14 04:41:38;;;;;;;27.43;23.43;;;27.30;38.70;;;;;;4935168;29;20536;-76
2023/09/14 04:44:06;;;;;;;27.80;23.53;;;28.00;37.70;;;;;;4936157;29;20541;-76
2023/09/14 04:46:34;;;;;;;29.88;23.65;;;28.00;38.10;;;;;;4935494;29;20200;-75
2023/09/14 04:49:02;;;;;;;31.20;23.27;;;27.80;38.90;;;;;;4936091;29;20672;-75
2023/09/14 04:51:29;;;;;;;26.88;19.27;;;28.40;37.40;;;;;;4935944;29;20197;-74
2023/09/14 04:53:57;;;;;;;21.50;18.27;;;27.70;37.20;;;;;;4934594;29;20287;-74
2023/09/14 04:56:24;;;;;;;20.47;18.27;;;27.30;38.10;;;;;;4935145;29;20180;-76
2023/09/14 04:58:51;;;;;;;22.80;18.57;;;27.10;39.20;;;;;;4934495;29;20188;-76
2023/09/14 05:01:19;;;;;;;24.23;17.93;;;27.70;38.60;;;;;;4935334;29;20239;-76
2023/09/14 05:03:46;;;;;;;21.02;16.25;;;27.80;37.80;;;;;;4933818;29;20192;-75
2023/09/14 05:06:13;;;;;;;23.60;15.70;;;27.90;37.90;;;;;;4935476;29;20219;-76
2023/09/14 05:08:41;;;;;;;17.65;15.75;;;28.40;36.90;;;;;;4934505;29;20746;-75
2023/09/14 05:11:12;;;;;;;18.92;15.38;;;28.10;37.20;;;;;;4935781;29;20196;-74
2023/09/14 05:13:39;;;;;;;17.90;15.25;;;28.10;38.10;;;;;;4934051;29;20239;-75
2023/09/14 05:16:13;;;;;;;19.93;14.30;;;27.80;39.00;;;;;;4930963;29;20196;-76
2023/09/14 05:18:40;;;;;;;18.00;13.27;;;27.90;38.80;;;;;;4917542;29;20608;-76
2023/09/14 05:21:08;;;;;;;17.67;13.23;;;28.80;37.00;;;;;;4935060;29;20588;-75
2023/09/14 05:23:36;;;;;;;19.58;14.82;;;29.00;36.40;;;;;;4928639;29;20524;-77
2023/09/14 05:26:03;;;;;;;17.52;11.23;;;28.90;35.00;;;;;;4930689;29;20559;-75
2023/09/14 05:28:30;;;;;;;12.23;10.15;;;29.00;34.20;;;;;;4925150;29;20220;-75
2023/09/14 05:31:01;;;;;;;11.65;9.23;;;28.40;34.90;;;;;;4928141;29;20698;-74
2023/09/14 05:33:28;;;;;;;11.88;9.82;;;28.00;34.10;;;;;;4934886;29;20224;-74
2023/09/14 05:35:58;;;;;;;12.97;9.03;;;27.60;35.50;;;;;;4934882;29;20726;-75
2023/09/14 05:38:25;;;;;;;10.32;8.70;;;27.80;36.20;;;;;;4933160;29;20198;-75
2023/09/14 05:40:53;;;;;;;9.93;8.45;;;28.60;34.70;;;;;;4932560;29;20722;-74
2023/09/14 05:43:20;;;;;;;10.45;8.38;;;28.80;34.30;;;;;;4928478;29;20199;-74
2023/09/14 05:45:51;;;;;;;12.27;7.18;;;29.00;33.60;;;;;;4928943;29;20196;-74
2023/09/14 05:48:18;;;;;;;9.68;7.18;;;28.10;35.50;;;;;;4935540;29;20658;-75
2023/09/14 05:50:46;;;;;;;12.20;7.03;;;27.90;36.00;;;;;;4935175;29;20187;-74
2023/09/14 05:53:14;;;;;;;9.63;6.82;;;27.50;36.00;;;;;;4934998;29;20226;-75
2023/09/14 05:55:41;;;;;;;10.25;6.03;;;27.80;36.20;;;;;;4932267;29;20208;-74
2023/09/14 05:58:08;;;;;;;10.55;6.38;;;27.60;36.50;;;;;;4934007;29;20199;-75
2023/09/14 06:00:36;;;;;;;11.67;5.73;;;27.30;37.20;;;;;;4933187;29;20550;-73
2023/09/14 06:03:04;;;;;;;9.50;6.00;;;27.00;37.30;;;;;;4934912;29;20572;-74
2023/09/14 06:05:31;;;;;;;8.13;6.47;;;27.00;37.40;;;;;;4932909;29;20589;-75
2023/09/14 06:07:59;;;;;;;9.30;5.63;;;27.10;37.40;;;;;;4925708;29;20188;-73
2023/09/14 06:10:26;;;;;;;8.73;6.43;;;27.10;37.20;;;;;;4923701;29;20659;-75
2023/09/14 06:12:54;;;;;;;10.87;5.83;;;27.30;36.80;;;;;;4933620;29;20223;-76
2023/09/14 06:15:21;;;;;;;13.33;5.90;;;26.70;37.70;;;;;;4932918;29;20238;-75
2023/09/14 06:17:49;;;;;;;11.37;6.57;;;27.30;37.20;;;;;;4931480;29;20195;-73
2023/09/14 06:20:17;;;;;;;11.37;6.27;;;27.30;37.20;;;;;;4934600;29;20242;-73
2023/09/14 06:22:44;;;;;;;8.90;5.80;;;27.50;36.80;;;;;;4931056;29;20192;-73
2023/09/14 06:25:12;;;;;;;10.00;5.27;;;27.80;36.80;;;;;;4934562;29;20192;-73
2023/09/14 06:27:39;;;;;;;8.93;5.80;;;28.10;36.10;;;;;;4934541;29;20331;-73
2023/09/14 06:30:08;;;;;;;10.97;5.70;;;28.10;36.30;;;;;;4933303;29;20641;-73
2023/09/14 06:32:35;;;;;;;7.68;5.30;;;27.60;36.40;;;;;;4933659;29;20223;-72
2023/09/14 06:35:02;;;;;;;8.63;5.30;;;27.10;37.40;;;;;;4933234;29;20368;-74
2023/09/14 06:37:30;;;;;;;8.13;5.30;;;26.90;38.10;;;;;;4933748;29;20199;-74
2023/09/14 06:39:57;;;;;;;11.17;5.27;;;26.90;38.40;;;;;;4933591;29;20210;-72
2023/09/14 06:42:24;;;;;;;11.77;5.30;;;27.10;38.10;;;;;;4933444;29;20655;-74
2023/09/14 06:44:52;;;;;;;6.00;4.73;;;26.80;38.70;;;;;;4932305;29;20196;-72
2023/09/14 06:47:19;;;;;;;9.17;4.73;;;26.70;39.20;;;;;;4932855;29;20444;-74
2023/09/14 06:49:53;;;;;;;9.07;5.10;;;26.50;39.50;;;;;;4929191;29;20188;-77
2023/09/14 06:52:20;;;;;;;12.57;4.77;;;26.40;39.50;;;;;;4929614;29;20578;-75
2023/09/14 06:54:48;;;;;;;7.10;5.10;;;26.30;39.30;;;;;;4931285;29;20188;-74
2023/09/14 06:57:16;;;;;;;8.77;4.70;;;25.90;39.80;;;;;;4930301;29;20350;-75
2023/09/14 06:59:43;;;;;;;11.33;5.00;;;25.50;40.10;;;;;;4931893;29;20267;-74
2023/09/14 07:02:10;;;;;;;10.50;4.70;;;25.20;40.90;;;;;;4933190;29;20714;-74
2023/09/14 07:04:38;;;;;;;9.43;4.90;;;25.30;40.60;;;;;;4931894;29;20663;-74
2023/09/14 07:07:05;;;;;;;5.83;4.10;;;25.10;41.00;;;;;;4931721;29;20203;-73
2023/09/14 07:09:33;;;;;;;5.43;3.77;;;24.30;41.10;;;;;;4917639;29;20655;-73
2023/09/14 07:12:02;;;;;;;10.57;3.53;;;23.70;42.20;;;;;;4931600;29;20222;-74
2023/09/14 07:14:29;;;;;;;6.70;3.80;;;23.60;41.80;;;;;;4933068;29;20192;-74
2023/09/14 07:16:57;;;;;;;6.03;3.70;;;23.40;42.30;;;;;;4925480;29;20192;-73
2023/09/14 07:19:26;;;;;;;7.13;3.97;;;23.00;43.20;;;;;;4923141;29;20198;-72
2023/09/14 07:21:57;;;;;;;8.57;3.70;;;22.50;44.00;;;;;;4929943;29;20185;-73
2023/09/14 07:24:26;;;;;;;6.07;4.03;;;22.30;44.40;;;;;;4931822;29;20258;-74
2023/09/14 07:26:54;;;;;;;8.13;4.27;;;22.10;45.10;;;;;;4930788;29;20274;-74
2023/09/14 07:29:21;;;;;;;5.53;3.87;;;21.90;45.50;;;;;;4933374;29;20192;-73
2023/09/14 07:31:50;;;;;;;6.87;3.57;;;21.70;45.80;;;;;;4933279;29;20188;-73
2023/09/14 07:34:17;;;;;;;5.50;3.37;;;21.50;46.40;;;;;;4932861;29;20192;-75
2023/09/14 07:36:45;;;;;;;5.33;3.40;;;21.30;46.80;;;;;;4931071;29;20184;-73
2023/09/14 07:39:13;;;;;;;4.87;3.40;;;21.20;47.40;;;;;;4931222;29;21459;-75
2023/09/14 07:41:40;;;;;;;8.33;3.90;;;21.00;47.70;;;;;;4932922;29;20187;-73
2023/09/14 07:44:07;;;;;;;6.33;4.23;;;20.80;48.10;;;;;;4933447;29;20621;-74
2023/09/14 07:46:36;;;;;;;8.37;3.63;;;20.80;48.60;;;;;;4932938;29;20188;-75
2023/09/14 07:49:04;;;;;;;7.90;4.10;;;20.60;49.40;;;;;;4931254;29;20195;-75
2023/09/14 07:51:31;;;;;;;6.53;3.80;;;20.50;49.70;;;;;;4929272;29;20642;-75
2023/09/14 07:54:00;;;;;;;4.63;3.53;;;20.40;50.10;;;;;;4931816;29;20714;-75
2023/09/14 07:56:27;;;;;;;8.50;3.80;;;20.40;50.30;;;;;;4933467;29;20270;-76
2023/09/14 07:58:56;;;;;;;9.27;3.70;;;20.30;50.00;;;;;;4933279;29;20211;-75
2023/09/14 08:01:24;;;;;;;5.23;3.50;;;20.20;50.30;;;;;;4931918;29;20195;-74
2023/09/14 08:03:51;;;;;;;5.47;3.90;;;20.20;51.40;;;;;;4932631;29;20192;-74
2023/09/14 08:06:19;;;;;;;9.23;6.80;;;20.00;52.10;;;;;;4933355;29;20183;-73
2023/09/14 08:08:47;;;;;;;6.63;4.97;;;20.00;52.50;;;;;;4931868;29;20196;-74
2023/09/14 08:11:14;;;;;;;8.47;5.30;;;19.90;53.00;;;;;;4930825;29;20195;-74
2023/09/14 08:13:41;;;;;;;18.83;14.70;;;19.80;53.70;;;;;;4931274;29;20211;-74
2023/09/14 08:16:12;;;;;;;7.50;5.10;;;19.70;53.70;;;;;;4927614;29;20601;-75
2023/09/14 08:18:40;;;;;;;6.57;3.60;;;19.70;53.70;;;;;;4928811;29;20204;-75
2023/09/14 08:21:07;;;;;;;8.43;4.10;;;19.70;52.90;;;;;;4927240;29;20183;-73
2023/09/14 08:23:35;;;;;;;6.77;3.90;;;19.70;53.20;;;;;;4930349;29;20208;-72
2023/09/14 08:26:06;;;;;;;10.77;3.67;;;19.60;52.10;;;;;;4928257;29;20192;-74
2023/09/14 08:28:33;;;;;;;5.67;3.77;;;19.60;52.10;;;;;;4932766;29;20532;-73
2023/09/14 08:31:01;;;;;;;8.90;3.63;;;19.60;52.20;;;;;;4933631;29;20279;-74
2023/09/14 08:33:28;;;;;;;7.70;3.50;;;19.60;52.00;;;;;;4935089;29;20223;-75
2023/09/14 08:35:55;;;;;;;6.70;3.17;;;19.60;51.60;;;;;;4935633;29;20225;-75
2023/09/14 08:38:25;;;;;;;6.63;3.40;;;19.50;51.50;;;;;;4934864;29;20191;-76
2023/09/14 08:41:00;;;;;;;7.10;3.43;;;19.50;51.90;;;;;;4935052;29;20253;-75
2023/09/14 08:43:28;;;;;;;4.67;2.90;;;19.40;52.30;;;;;;4936794;29;20203;-74
2023/09/14 08:45:58;;;;;;;7.10;3.50;;;19.40;52.70;;;;;;4935379;29;20284;-74
2023/09/14 08:48:29;;;;;;;8.70;3.53;;;19.30;52.80;;;;;;4936366;29;20184;-74
2023/09/14 08:50:58;;;;;;;8.00;3.37;;;19.30;52.80;;;;;;4934214;29;20195;-76
2023/09/14 08:53:26;;;;;;;7.10;3.13;;;19.30;52.40;;;;;;4933727;29;20647;-75
2023/09/14 08:55:53;;;;;;;8.03;4.07;;;19.20;53.20;;;;;;4934734;29;20195;-76
2023/09/14 08:58:22;;;;;;;9.93;3.83;;;19.20;53.70;;;;;;4934533;29;20187;-75
2023/09/14 09:00:50;;;;;;;5.67;3.10;;;19.20;54.30;;;;;;4930959;29;20192;-76
2023/09/14 09:03:17;;;;;;;8.60;3.73;;;19.20;54.40;;;;;;4931779;29;20655;-74
2023/09/14 09:05:45;;;;;;;4.50;3.00;;;19.00;54.90;;;;;;4929200;29;20228;-76
2023/09/14 09:08:15;;;;;;;4.73;3.50;;;19.00;55.50;;;;;;4935149;29;20199;-74
2023/09/14 09:10:43;;;;;;;6.47;4.13;;;19.00;56.20;;;;;;4928990;29;20189;-78
2023/09/14 09:13:11;;;;;;;7.67;3.43;;;19.00;56.80;;;;;;4929944;29;20714;-76
2023/09/14 09:15:38;;;;;;;4.53;3.30;;;18.90;57.30;;;;;;4932275;29;21411;-74
2023/09/14 09:18:10;;;;;;;5.70;3.57;;;18.80;57.50;;;;;;4924235;29;20192;-75
2023/09/14 09:20:40;;;;;;;6.73;3.80;;;18.80;57.80;;;;;;4929841;29;20209;-74
2023/09/14 09:23:09;;;;;;;14.03;3.77;;;18.80;58.10;;;;;;4923746;29;20184;-75
2023/09/14 09:25:50;;;;;;;9.83;4.07;;;18.80;58.30;;;;;;4934273;29;20255;-75
2023/09/14 09:28:18;;;;;;;10.43;3.70;;;18.70;58.20;;;;;;4933329;29;20222;-75
2023/09/14 09:30:45;;;;;;;11.47;3.67;;;18.70;58.00;;;;;;4925854;29;20232;-76
2023/09/14 09:33:13;;;;;;;6.93;3.50;;;18.60;57.70;;;;;;4926402;29;20219;-76
2023/09/14 09:35:41;;;;;;;7.77;3.10;;;18.60;57.40;;;;;;4924214;29;20246;-76
2023/09/14 09:38:16;;;;;;;7.97;3.37;;;18.60;56.80;;;;;;4924469;29;20240;-77
2023/09/14 09:40:45;;;;;;;14.00;7.47;;;18.60;56.20;;;;;;4931706;29;20667;-76
2023/09/14 09:43:17;;;;;;;10.03;6.17;;;18.60;56.30;;;;;;4933652;29;20192;-75
2023/09/14 09:45:46;;;;;;;9.93;3.67;;;18.60;55.50;;;;;;4932790;29;20272;-75
2023/09/14 09:48:14;;;;;;;6.53;3.20;;;18.60;55.10;;;;;;4935394;29;20192;-76
2023/09/14 09:50:41;;;;;;;9.97;3.73;;;18.50;55.30;;;;;;4933586;29;20202;-76
2023/09/14 09:53:14;;;;;;;8.47;3.50;;;18.50;55.10;;;;;;4932101;29;20228;-76
2023/09/14 09:55:47;;;;;;;7.30;3.77;;;18.50;55.20;;;;;;4933531;29;20192;-76
2023/09/14 09:58:17;;;;;;;6.00;3.53;;;18.50;55.00;;;;;;4934681;29;20205;-76
2023/09/14 10:00:44;;;;;;;5.70;3.23;;;18.50;54.60;;;;;;4932901;29;20583;-76
2023/09/14 10:03:18;;;;;;;4.33;2.90;;;18.50;54.50;;;;;;4933547;29;20196;-76
2023/09/14 10:05:45;;;;;;;7.03;3.67;;;18.50;53.70;;;;;;4930428;29;20279;-76
2023/09/14 10:08:19;;;;;;;8.10;3.03;;;18.40;54.00;;;;;;4931482;29;20549;-76
2023/09/14 10:10:51;;;;;;;5.10;3.10;;;18.40;54.50;;;;;;4932022;29;20191;-76
2023/09/14 10:13:25;;;;;;;7.33;3.10;;;18.30;53.30;;;;;;4935873;29;20222;-76
2023/09/14 10:15:56;;;;;;;7.30;2.80;;;18.30;53.70;;;;;;4933214;29;20199;-76
2023/09/14 10:18:25;;;;;;;6.23;3.27;;;18.30;53.70;;;;;;4935087;29;20183;-76
2023/09/14 10:20:55;;;;;;;9.90;3.30;;;18.30;53.10;;;;;;4933669;29;20211;-77
2023/09/14 10:23:23;;;;;;;7.53;3.47;;;18.30;53.30;;;;;;4934789;29;20184;-75
2023/09/14 10:25:53;;;;;;;6.17;3.10;;;18.30;53.60;;;;;;4934420;29;20191;-74
2023/09/14 10:28:22;;;;;;;9.83;3.57;;;18.30;53.40;;;;;;4935223;29;20210;-75
2023/09/14 10:30:54;;;;;;;5.03;2.80;;;18.30;53.40;;;;;;4934743;29;20283;-76
2023/09/14 10:33:24;;;;;;;8.00;2.97;;;18.20;53.00;;;;;;4935121;29;20638;-75
2023/09/14 10:35:54;;;;;;;6.17;3.10;;;18.20;52.50;;;;;;4933987;29;20240;-75
2023/09/14 10:38:23;;;;;;;5.63;3.23;;;18.20;52.40;;;;;;4935105;29;20188;-76
2023/09/14 10:40:53;;;;;;;6.67;2.73;;;18.20;52.40;;;;;;4934461;29;20191;-76
2023/09/14 10:43:20;;;;;;;6.57;3.17;;;18.10;52.90;;;;;;4935124;29;20195;-76
2023/09/14 10:45:50;;;;;;;13.80;2.90;;;18.00;52.50;;;;;;4934375;29;20196;-75
2023/09/14 10:48:22;;;;;;;7.53;3.00;;;18.10;52.40;;;;;;4934988;29;20199;-76
2023/09/14 10:50:53;;;;;;;8.33;3.20;;;18.10;52.20;;;;;;4934217;29;20354;-77
2023/09/14 10:53:23;;;;;;;3.50;2.43;;;18.00;52.50;;;;;;4935314;29;20219;-75
2023/09/14 10:55:52;;;;;;;6.43;2.67;;;18.00;52.00;;;;;;4933553;29;20332;-76
2023/09/14 10:58:20;;;;;;;5.17;2.77;;;18.00;52.10;;;;;;4918267;29;20702;-75
2023/09/14 11:00:59;;;;;;;12.40;3.70;;;18.00;51.80;;;;;;4932854;29;20204;-76
2023/09/14 11:03:27;;;;;;;4.67;2.70;;;18.00;51.70;;;;;;4927194;29;20177;-76
2023/09/14 11:05:54;;;;;;;5.50;2.70;;;18.00;51.10;;;;;;4928773;29;20192;-77
2023/09/14 11:08:22;;;;;;;5.23;2.70;;;18.00;51.60;;;;;;4934234;29;20192;-75
2023/09/14 11:10:56;;;;;;;6.57;2.70;;;18.00;51.20;;;;;;4932003;29;20332;-76
2023/09/14 11:13:25;;;;;;;5.63;3.00;;;18.00;51.50;;;;;;4921226;29;20208;-76
2023/09/14 11:16:11;;;;;;;7.03;2.60;;;18.00;51.70;;;;;;4929900;29;20224;-77
2023/09/14 11:18:45;;;;;;;3.67;2.43;;;18.00;51.60;;;;;;4931500;29;20206;-75
2023/09/14 11:21:33;;;;;;;6.13;2.47;;;18.00;51.90;;;;;;4932811;29;20187;-76
2023/09/14 11:24:09;;;;;;;5.77;2.83;;;18.00;52.30;;;;;;4929433;29;20200;-76
2023/09/14 11:26:42;;;;;;;5.83;2.80;;;18.00;52.00;;;;;;4927949;29;20243;-77
2023/09/14 11:29:10;;;;;;;4.80;2.63;;;17.90;52.60;;;;;;4933525;29;20213;-76
2023/09/14 11:31:38;;;;;;;6.87;2.67;;;17.90;52.80;;;;;;4933620;29;20191;-77
2023/09/14 11:34:10;;;;;;;5.80;2.73;;;18.00;52.90;;;;;;4933241;29;20228;-75
2023/09/14 11:36:38;;;;;;;5.73;3.00;;;17.90;52.90;;;;;;4932610;29;20258;-76
2023/09/14 11:39:10;;;;;;;5.13;2.63;;;17.90;53.10;;;;;;4921879;29;20183;-74
2023/09/14 11:41:49;;;;;;;5.87;2.73;;;17.90;52.90;;;;;;4931666;29;20665;-77
2023/09/14 11:44:21;;;;;;;8.20;2.70;;;17.90;52.60;;;;;;4932561;29;20184;-75
2023/09/14 11:46:52;;;;;;;5.93;2.50;;;17.90;52.70;;;;;;4944766;29;20565;-75
2023/09/14 11:49:26;;;;;;;4.17;2.90;;;17.90;53.00;;;;;;4942693;29;20437;-77
2023/09/14 11:51:55;;;;;;;8.13;3.07;;;17.80;53.10;;;;;;4934831;29;20224;-77
2023/09/14 11:54:28;;;;;;;6.30;2.60;;;17.80;53.00;;;;;;4937164;29;20196;-76
2023/09/14 11:57:00;;;;;;;5.97;2.93;;;17.80;52.80;;;;;;4938630;29;20190;-76
2023/09/14 11:59:32;;;;;;;5.20;2.80;;;17.80;53.00;;;;;;4934300;29;20183;-75
2023/09/14 12:02:01;;;;;;;7.13;2.70;;;17.80;52.80;;;;;;4945256;29;20184;-75
2023/09/14 12:04:29;;;;;;;8.67;3.10;;;17.80;52.70;;;;;;4940826;29;20282;-76
2023/09/14 12:07:00;;;;;;;5.73;2.87;;;17.80;52.40;;;;;;4941382;29;20211;-75
2023/09/14 12:09:42;;;;;;;8.53;2.90;;;17.80;52.50;;;;;;4940104;29;20547;-76
2023/09/14 12:12:24;;;;;;;9.87;3.20;;;17.70;52.40;;;;;;4934201;29;20226;-75
2023/09/14 12:14:51;;;;;;;5.87;2.93;;;17.60;53.00;;;;;;4922513;29;20211;-77
2023/09/14 12:17:23;;;;;;;5.63;2.73;;;17.60;52.50;;;;;;4938839;29;20196;-76
2023/09/14 12:19:55;;;;;;;7.17;3.37;;;17.60;50.20;;;;;;4937529;29;20202;-75
2023/09/14 12:22:24;;;;;;;7.63;3.23;;;17.60;50.20;;;;;;4931508;29;20198;-76
2023/09/14 12:24:52;;;;;;;7.27;2.90;;;17.70;49.90;;;;;;4936553;29;20211;-76
2023/09/14 12:27:20;;;;;;;4.40;2.63;;;17.60;50.10;;;;;;4931717;29;20192;-76
2023/09/14 12:29:49;;;;;;;6.43;3.23;;;17.50;50.50;;;;;;4935084;29;20188;-76
2023/09/14 12:32:17;;;;;;;6.07;3.73;;;17.30;51.20;;;;;;4937005;29;20214;-76
2023/09/14 12:34:46;;;;;;;6.47;4.07;;;17.30;51.60;;;;;;4936335;29;20236;-76
2023/09/14 12:37:22;;;;;;;7.67;4.00;;;17.20;52.00;;;;;;4937285;29;20713;-77
2023/09/14 12:39:51;;;;;;;6.70;4.07;;;17.20;52.50;;;;;;4936710;29;20190;-77
2023/09/14 12:42:23;;;;;;;9.43;4.10;;;17.00;52.90;;;;;;4937413;29;20239;-77
2023/09/14 12:44:53;;;;;;;7.23;4.53;;;17.00;53.60;;;;;;4937400;29;20200;-77
2023/09/14 12:47:25;;;;;;;9.20;3.83;;;16.80;53.70;;;;;;4937017;29;20611;-77
2023/09/14 12:50:02;;;;;;;9.50;4.67;;;16.80;54.20;;;;;;4937541;29;20192;-76